createdAt,value
2022-09-20T00:01:59.577Z,91.20
2022-09-20T00:04:28.218Z,91.10
2022-09-20T00:07:01.152Z,91.10
2022-09-20T00:09:33.993Z,91.10
2022-09-20T00:12:02.504Z,91.20
2022-09-20T00:14:31.049Z,91.30
2022-09-20T00:17:02.201Z,91.40
2022-09-20T00:19:30.490Z,91.50
2022-09-20T00:21:58.478Z,91.40
2022-09-20T00:24:29.294Z,91.30
2022-09-20T00:27:00.089Z,91.20
2022-09-20T00:29:30.481Z,91.30
2022-09-20T00:32:01.998Z,91.30
2022-09-20T00:34:48.724Z,91.20
2022-09-20T00:37:22.261Z,90.90
2022-09-20T00:39:53.140Z,90.80
2022-09-20T00:42:29.602Z,90.90
2022-09-20T00:45:01.654Z,90.80
2022-09-20T00:47:29.648Z,90.70
2022-09-20T00:50:06.028Z,90.60
2022-09-20T00:52:44.293Z,90.70
2022-09-20T00:55:16.114Z,90.70
2022-09-20T00:57:44.879Z,90.80
2022-09-20T01:00:14.639Z,90.80
2022-09-20T01:02:46.457Z,90.70
2022-09-20T01:05:15.285Z,90.50
2022-09-20T01:07:44.558Z,90.50
2022-09-20T01:10:15.057Z,90.80
2022-09-20T01:12:44.058Z,90.90
2022-09-20T01:15:14.809Z,90.80
2022-09-20T01:17:45.262Z,90.90
2022-09-20T01:20:16.435Z,90.70
2022-09-20T01:22:50.698Z,90.70
2022-09-20T01:25:32.062Z,90.70
2022-09-20T01:28:03.034Z,90.80
2022-09-20T01:30:41.214Z,90.80
2022-09-20T01:33:28.224Z,90.90
2022-09-20T01:36:00.082Z,90.70
2022-09-20T01:38:43.644Z,90.80
2022-09-20T01:41:30.648Z,90.90
2022-09-20T01:44:23.251Z,90.80
2022-09-20T01:46:56.245Z,91.00
2022-09-20T01:49:29.649Z,90.90
2022-09-20T01:52:03.671Z,91.10
2022-09-20T01:54:34.738Z,91.20
2022-09-20T01:57:08.980Z,90.90
2022-09-20T01:59:50.461Z,90.60
2022-09-20T02:02:38.793Z,91.10
2022-09-20T02:05:25.399Z,91.10
2022-09-20T02:08:12.201Z,91.00
2022-09-20T02:10:55.552Z,90.90
2022-09-20T02:13:29.765Z,91.00
2022-09-20T02:16:07.009Z,91.10
2022-09-20T02:18:42.153Z,91.10
2022-09-20T02:21:11.128Z,91.00
2022-09-20T02:23:57.517Z,91.20
2022-09-20T02:26:39.657Z,91.00
2022-09-20T02:29:32.661Z,91.20
2022-09-20T02:32:13.877Z,91.30
2022-09-20T02:35:00.507Z,91.10
2022-09-20T02:37:47.319Z,91.20
2022-09-20T02:40:27.162Z,91.30
2022-09-20T02:43:00.976Z,91.20
2022-09-20T02:45:37.184Z,91.20
2022-09-20T02:48:08.108Z,91.30
2022-09-20T02:50:55.111Z,90.90
2022-09-20T02:53:31.475Z,91.20
2022-09-20T02:56:18.123Z,91.00
2022-09-20T02:58:48.847Z,91.10
2022-09-20T03:01:33.961Z,91.10
2022-09-20T03:04:20.651Z,91.10
2022-09-20T03:06:51.593Z,91.00
2022-09-20T03:09:31.870Z,91.20
2022-09-20T03:12:05.767Z,91.10
2022-09-20T03:14:57.233Z,91.10
2022-09-20T03:17:52.230Z,91.20
2022-09-20T03:20:52.422Z,91.10
2022-09-20T03:23:26.185Z,91.20
2022-09-20T03:26:06.813Z,91.10
2022-09-20T03:28:35.454Z,91.00
2022-09-20T03:31:16.161Z,91.00
2022-09-20T03:33:47.137Z,91.20
2022-09-20T03:36:18.161Z,91.20
2022-09-20T03:39:00.174Z,91.20
2022-09-20T03:41:48.450Z,91.10
2022-09-20T03:44:16.654Z,91.20
2022-09-20T03:46:45.990Z,91.20
2022-09-20T03:49:32.668Z,91.00
2022-09-20T03:52:36.214Z,91.00
2022-09-20T03:55:16.393Z,91.20
2022-09-20T03:57:55.034Z,91.10
2022-09-20T04:00:28.757Z,91.30
2022-09-20T04:03:12.498Z,91.30
2022-09-20T04:05:43.705Z,91.10
2022-09-20T04:08:20.312Z,91.00
2022-09-20T04:11:06.400Z,91.20
2022-09-20T04:13:38.550Z,91.00
2022-09-20T04:16:26.616Z,91.20
2022-09-20T04:19:01.232Z,91.20
2022-09-20T04:21:32.992Z,90.90
2022-09-20T04:24:36.448Z,91.10
2022-09-20T04:27:09.175Z,91.30
2022-09-20T04:29:43.493Z,91.00
2022-09-20T04:32:20.842Z,91.00
2022-09-20T04:35:27.572Z,91.10
2022-09-20T04:37:58.451Z,91.20
2022-09-20T04:40:29.481Z,91.10
2022-09-20T04:43:03.369Z,91.00
2022-09-20T04:46:00.760Z,90.90
2022-09-20T04:48:56.875Z,91.00
2022-09-20T04:51:43.436Z,91.10
2022-09-20T04:54:20.541Z,91.10
2022-09-20T04:56:51.544Z,91.00
2022-09-20T04:59:48.516Z,91.00
2022-09-20T05:02:16.671Z,91.00
2022-09-20T05:05:03.266Z,90.80
2022-09-20T05:07:34.018Z,90.90
2022-09-20T05:10:14.302Z,90.80
2022-09-20T05:12:57.391Z,90.90
2022-09-20T05:15:40.901Z,90.90
2022-09-20T05:18:20.842Z,90.90
2022-09-20T05:20:59.698Z,91.10
2022-09-20T05:23:29.783Z,91.10
2022-09-20T05:26:00.714Z,91.00
2022-09-20T05:28:29.029Z,91.10
2022-09-20T05:31:09.700Z,90.90
2022-09-20T05:33:49.482Z,90.60
2022-09-20T05:36:37.247Z,90.10
2022-09-20T05:39:24.172Z,89.00
2022-09-20T05:41:58.758Z,88.20
2022-09-20T05:44:32.978Z,86.90
2022-09-20T05:47:06.783Z,84.90
2022-09-20T05:49:44.270Z,84.80
2022-09-20T05:52:32.554Z,83.60
2022-09-20T05:55:06.834Z,81.70
2022-09-20T05:57:56.818Z,81.70
2022-09-20T06:00:31.996Z,81.80
2022-09-20T06:03:18.725Z,80.90
2022-09-20T06:06:02.330Z,78.30
2022-09-20T06:08:50.486Z,78.00
2022-09-20T06:11:45.089Z,75.00
2022-09-20T06:14:38.147Z,72.30
2022-09-20T06:17:20.467Z,69.50
2022-09-20T06:20:24.210Z,66.40
2022-09-20T06:22:55.070Z,64.20
2022-09-20T06:25:31.623Z,60.80
2022-09-20T06:28:03.867Z,59.40
2022-09-20T06:30:41.430Z,57.90
2022-09-20T06:33:23.900Z,57.30
2022-09-20T06:36:21.946Z,56.30
2022-09-20T06:39:27.767Z,56.00
2022-09-20T06:41:58.326Z,56.50
2022-09-20T06:44:27.215Z,55.60
2022-09-20T06:46:55.421Z,55.80
2022-09-20T06:49:24.529Z,56.60
2022-09-20T06:51:56.657Z,55.50
2022-09-20T06:54:29.808Z,53.30
2022-09-20T06:56:59.331Z,54.50
2022-09-20T06:59:34.232Z,53.70
2022-09-20T07:02:05.939Z,53.00
2022-09-20T07:04:36.052Z,53.00
2022-09-20T07:07:09.507Z,52.80
2022-09-20T07:09:39.978Z,52.40
2022-09-20T07:12:12.456Z,51.60
2022-09-20T07:14:41.100Z,52.30
2022-09-20T07:17:10.231Z,50.60
2022-09-20T07:19:39.678Z,50.40
2022-09-20T07:22:08.696Z,51.90
2022-09-20T07:24:37.336Z,54.50
2022-09-20T07:27:08.624Z,55.00
2022-09-20T07:29:42.521Z,55.80
2022-09-20T07:32:16.462Z,56.80
2022-09-20T07:34:48.183Z,57.10
2022-09-20T07:37:23.089Z,54.60
2022-09-20T07:39:54.260Z,52.30
2022-09-20T07:42:23.230Z,53.30
2022-09-20T07:44:57.046Z,53.80
2022-09-20T07:47:29.185Z,53.60
2022-09-20T07:49:58.288Z,54.10
2022-09-20T07:52:32.850Z,54.40
2022-09-20T07:55:03.306Z,55.00
2022-09-20T07:57:37.889Z,54.10
2022-09-20T08:00:07.696Z,54.50
2022-09-20T08:02:41.312Z,55.10
2022-09-20T08:05:12.780Z,54.50
2022-09-20T08:07:43.905Z,55.20
2022-09-20T08:10:12.505Z,55.90
2022-09-20T08:15:36.502Z,56.00
2022-09-20T08:18:12.207Z,56.20
2022-09-20T08:20:42.208Z,56.70
2022-09-20T08:23:23.452Z,56.70
2022-09-20T08:25:53.694Z,56.80
2022-09-20T08:28:22.998Z,56.20
2022-09-20T08:30:51.982Z,56.40
2022-09-20T08:33:22.965Z,56.30
2022-09-20T08:35:51.105Z,56.80
2022-09-20T08:41:07.696Z,57.60
2022-09-20T08:43:39.739Z,57.30
2022-09-20T08:46:11.511Z,56.90
2022-09-20T08:48:41.226Z,57.20
2022-09-20T08:51:22.660Z,57.30
2022-09-20T08:54:01.002Z,57.30
2022-09-20T08:56:33.530Z,57.00
2022-09-20T08:59:01.590Z,57.20
2022-09-20T09:01:32.120Z,57.60
2022-09-20T09:04:12.318Z,57.40
2022-09-20T09:06:41.268Z,57.20
2022-09-20T09:09:17.787Z,56.00
2022-09-20T09:11:46.969Z,54.90
2022-09-20T09:14:40.189Z,54.40
2022-09-20T09:17:12.412Z,54.90
2022-09-20T09:19:45.694Z,56.10
2022-09-20T09:22:19.468Z,56.10
2022-09-20T09:25:10.113Z,55.20
2022-09-20T09:27:51.116Z,54.50
2022-09-20T09:30:24.043Z,54.70
2022-09-20T09:32:52.199Z,54.50
2022-09-20T09:35:25.697Z,55.00
2022-09-20T09:37:58.286Z,55.70
2022-09-20T09:40:33.171Z,57.00
2022-09-20T09:43:02.467Z,57.50
2022-09-20T09:45:39.176Z,57.40
2022-09-20T09:48:22.271Z,56.60
2022-09-20T09:50:50.663Z,54.20
2022-09-20T09:53:22.799Z,54.90
2022-09-20T09:56:01.897Z,53.50
2022-09-20T09:58:39.823Z,53.70
2022-09-20T10:01:12.136Z,54.50
2022-09-20T10:03:48.989Z,55.80
2022-09-20T10:06:52.645Z,55.10
2022-09-20T10:09:48.947Z,54.40
2022-09-20T10:12:21.158Z,53.30
2022-09-20T10:14:51.949Z,53.10
2022-09-20T10:17:21.186Z,53.80
2022-09-20T10:20:08.738Z,54.20
2022-09-20T10:22:37.046Z,54.10
2022-09-20T10:25:29.799Z,53.80
2022-09-20T10:28:04.958Z,53.30
2022-09-20T10:30:36.381Z,52.40
2022-09-20T10:33:17.340Z,51.40
2022-09-20T10:36:15.167Z,52.20
2022-09-20T10:38:50.563Z,53.80
2022-09-20T10:41:46.290Z,53.10
2022-09-20T10:44:20.428Z,53.50
2022-09-20T10:46:54.515Z,54.30
2022-09-20T10:49:35.806Z,55.70
2022-09-20T10:52:05.452Z,57.00
2022-09-20T10:54:34.204Z,57.90
2022-09-20T10:57:41.162Z,57.50
2022-09-20T11:00:20.820Z,57.60
2022-09-20T11:02:58.089Z,58.30
2022-09-20T11:05:26.273Z,58.40
2022-09-20T11:07:56.970Z,58.80
2022-09-20T11:10:57.399Z,59.60
2022-09-20T11:13:32.704Z,60.00
2022-09-20T11:16:10.425Z,59.70
2022-09-20T11:18:50.849Z,57.70
2022-09-20T11:21:41.824Z,55.60
2022-09-20T11:24:20.623Z,52.30
2022-09-20T11:26:54.578Z,50.70
2022-09-20T11:29:52.057Z,47.10
2022-09-20T11:32:33.353Z,44.90
2022-09-20T11:35:09.822Z,45.20
2022-09-20T11:37:47.731Z,46.30
2022-09-20T11:40:36.042Z,46.90
2022-09-20T11:43:06.587Z,48.50
2022-09-20T11:45:36.941Z,49.00
2022-09-20T11:48:10.869Z,48.00
2022-09-20T11:50:47.768Z,48.50
2022-09-20T11:53:36.767Z,47.60
2022-09-20T11:56:11.074Z,48.80
2022-09-20T11:59:05.542Z,48.30
2022-09-20T12:01:34.327Z,48.20
2022-09-20T12:04:28.230Z,47.60
2022-09-20T12:07:05.910Z,48.70
2022-09-20T12:09:39.052Z,48.90
2022-09-20T12:12:33.816Z,50.90
2022-09-20T12:15:03.166Z,50.30
2022-09-20T12:17:54.523Z,49.90
2022-09-20T12:20:42.901Z,49.60
2022-09-20T12:23:31.326Z,50.10
2022-09-20T12:26:04.126Z,51.50
2022-09-20T12:28:39.823Z,52.10
2022-09-20T12:31:34.550Z,51.80
2022-09-20T12:34:12.117Z,51.30
2022-09-20T12:37:00.414Z,50.40
2022-09-20T12:39:39.084Z,50.40
2022-09-20T12:42:23.661Z,51.00
2022-09-20T12:44:51.607Z,52.10
2022-09-20T12:47:24.736Z,51.40
2022-09-20T12:50:11.793Z,50.30
2022-09-20T12:52:58.032Z,50.50
2022-09-20T12:55:30.461Z,50.30
2022-09-20T12:58:14.719Z,51.40
2022-09-20T13:01:14.368Z,50.80
2022-09-20T13:03:43.883Z,50.80
2022-09-20T13:06:16.001Z,49.30
2022-09-20T13:08:56.338Z,48.20
2022-09-20T13:11:30.251Z,47.40
2022-09-20T13:14:02.030Z,46.20
2022-09-20T13:16:48.811Z,46.00
2022-09-20T13:19:21.102Z,45.90
2022-09-20T13:21:55.406Z,46.30
2022-09-20T13:24:26.011Z,46.90
2022-09-20T13:27:02.448Z,46.60
2022-09-20T13:29:35.585Z,47.00
2022-09-20T13:32:22.359Z,48.20
2022-09-20T13:35:09.878Z,48.80
2022-09-20T13:37:43.337Z,47.20
2022-09-20T13:40:22.017Z,47.80
2022-09-20T13:42:52.420Z,46.60
2022-09-20T13:45:22.389Z,45.80
2022-09-20T13:47:56.454Z,44.90
2022-09-20T13:50:27.826Z,44.10
2022-09-20T13:52:59.972Z,43.20
2022-09-20T13:55:29.062Z,42.30
2022-09-20T13:57:59.831Z,43.70
2022-09-20T14:00:32.030Z,43.30
2022-09-20T14:03:05.484Z,42.80
2022-09-20T14:05:33.900Z,43.10
2022-09-20T14:08:11.383Z,41.80
2022-09-20T14:10:44.111Z,41.90
2022-09-20T14:13:18.527Z,41.10
2022-09-20T14:15:47.338Z,41.80
2022-09-20T14:18:17.427Z,41.50
2022-09-20T14:20:45.639Z,41.20
2022-09-20T14:23:24.428Z,42.80
2022-09-20T14:26:07.718Z,42.00
2022-09-20T14:28:36.873Z,43.20
2022-09-20T14:31:07.879Z,43.50
2022-09-20T14:33:40.600Z,44.50
2022-09-20T14:36:40.899Z,44.30
2022-09-20T14:39:15.264Z,44.70
2022-09-20T14:41:44.090Z,47.30
2022-09-20T14:44:24.752Z,48.70
2022-09-20T14:46:54.969Z,48.30
2022-09-20T14:49:26.088Z,48.20
2022-09-20T14:51:54.467Z,48.70
2022-09-20T14:54:22.480Z,49.00
2022-09-20T14:56:55.171Z,49.00
2022-09-20T14:59:27.344Z,49.50
2022-09-20T15:02:11.308Z,50.10
2022-09-20T15:04:40.347Z,50.10
2022-09-20T15:07:11.250Z,50.90
2022-09-20T15:09:39.441Z,52.40
2022-09-20T15:12:16.354Z,53.60
2022-09-20T15:14:44.516Z,54.20
2022-09-20T15:17:17.104Z,55.40
2022-09-20T15:19:45.943Z,54.80
2022-09-20T15:22:14.441Z,54.20
2022-09-20T15:24:43.311Z,55.00
2022-09-20T15:27:12.467Z,56.20
2022-09-20T15:29:43.162Z,56.00
2022-09-20T15:32:11.653Z,55.50
2022-09-20T15:34:39.727Z,55.10
2022-09-20T15:37:11.143Z,55.80
2022-09-20T15:39:42.054Z,56.50
2022-09-20T15:42:11.062Z,56.80
2022-09-20T15:44:39.963Z,57.50
2022-09-20T15:47:14.101Z,58.40
2022-09-20T15:49:47.021Z,58.80
2022-09-20T15:52:15.078Z,59.60
2022-09-20T15:54:43.708Z,60.60
2022-09-20T15:57:14.239Z,61.70
2022-09-20T15:59:42.339Z,62.60
2022-09-20T16:02:12.993Z,63.30
2022-09-20T16:04:46.430Z,63.90
2022-09-20T16:07:16.968Z,64.30
2022-09-20T16:09:48.003Z,65.00
2022-09-20T16:12:19.551Z,66.00
2022-09-20T16:14:50.820Z,65.60
2022-09-20T16:17:39.054Z,65.70
2022-09-20T16:20:10.541Z,66.50
2022-09-20T16:22:41.934Z,66.80
2022-09-20T16:25:13.001Z,67.30
2022-09-20T16:27:41.109Z,67.50
2022-09-20T16:30:12.233Z,67.80
2022-09-20T16:32:43.662Z,68.30
2022-09-20T16:35:13.138Z,68.30
2022-09-20T16:37:46.486Z,68.50
2022-09-20T16:40:15.523Z,69.10
2022-09-20T16:42:52.362Z,69.20
2022-09-20T16:45:29.147Z,70.00
2022-09-20T16:47:59.109Z,69.90
2022-09-20T16:50:32.506Z,70.20
2022-09-20T16:53:03.414Z,70.50
2022-09-20T16:55:40.303Z,70.60
2022-09-20T16:58:09.449Z,70.70
2022-09-20T17:00:39.808Z,71.00
2022-09-20T17:03:09.052Z,71.20
2022-09-20T17:05:40.052Z,71.40
2022-09-20T17:08:13.487Z,71.70
2022-09-20T17:10:42.599Z,71.90
2022-09-20T17:13:10.777Z,71.90
2022-09-20T17:15:41.407Z,72.10
2022-09-20T17:18:14.897Z,72.60
2022-09-20T17:20:46.829Z,73.00
2022-09-20T17:23:21.153Z,73.30
2022-09-20T17:25:52.063Z,73.50
2022-09-20T17:28:20.261Z,73.80
2022-09-20T17:30:50.939Z,74.40
2022-09-20T17:33:19.195Z,74.70
2022-09-20T17:35:57.358Z,75.00
2022-09-20T17:38:25.351Z,75.50
2022-09-20T17:41:04.015Z,75.90
2022-09-20T17:43:34.417Z,76.10
2022-09-20T17:46:11.768Z,76.50
2022-09-20T17:48:52.253Z,76.70
2022-09-20T17:51:24.397Z,77.50
2022-09-20T17:53:58.805Z,77.40
2022-09-20T17:56:31.354Z,77.20
2022-09-20T17:58:59.953Z,77.20
2022-09-20T18:01:28.831Z,77.70
2022-09-20T18:03:57.776Z,78.40
2022-09-20T18:06:32.343Z,77.70
2022-09-20T18:09:04.239Z,77.90
2022-09-20T18:11:34.232Z,78.00
2022-09-20T18:14:05.426Z,78.50
2022-09-20T18:16:37.627Z,79.10
2022-09-20T18:19:09.499Z,79.20
2022-09-20T18:21:41.400Z,79.20
2022-09-20T18:24:10.136Z,79.40
2022-09-20T18:26:38.948Z,79.20
2022-09-20T18:29:39.067Z,79.10
2022-09-20T18:32:08.962Z,79.20
2022-09-20T18:34:39.941Z,79.30
2022-09-20T18:37:14.405Z,79.50
2022-09-20T18:39:43.442Z,80.10
2022-09-20T18:42:11.572Z,80.50
2022-09-20T18:44:41.565Z,80.40
2022-09-20T18:47:12.104Z,80.70
2022-09-20T18:49:40.146Z,81.40
2022-09-20T18:52:11.116Z,81.80
2022-09-20T18:54:40.904Z,81.90
2022-09-20T18:57:10.537Z,82.10
2022-09-20T19:06:54.457Z,81.80
2022-09-20T19:10:14.433Z,82.80
2022-09-20T19:13:29.880Z,83.00
2022-09-20T19:16:44.407Z,83.10
2022-09-20T19:19:57.458Z,83.60
2022-09-20T19:23:11.419Z,84.00
2022-09-20T19:26:59.329Z,83.80
2022-09-20T19:30:29.583Z,84.30
2022-09-20T19:33:44.330Z,84.30
2022-09-20T19:36:54.706Z,84.80
2022-09-20T19:40:17.053Z,84.60
2022-09-20T19:43:29.995Z,84.60
2022-09-20T19:46:46.568Z,85.00
2022-09-20T19:50:09.570Z,85.20
2022-09-20T19:53:30.736Z,85.60
2022-09-20T19:56:42.178Z,85.50
2022-09-20T20:00:09.286Z,85.80
2022-09-20T20:03:44.814Z,85.50
2022-09-20T20:07:11.011Z,86.00
2022-09-20T20:10:12.341Z,86.10
2022-09-20T20:13:12.010Z,86.30
2022-09-20T20:16:42.278Z,86.50
2022-09-20T20:19:36.285Z,86.70
2022-09-20T20:22:47.567Z,86.70
2022-09-20T20:26:04.049Z,86.90
2022-09-20T20:29:38.092Z,86.90
2022-09-20T20:32:57.098Z,86.90
2022-09-20T20:36:08.112Z,87.00
2022-09-20T20:39:17.283Z,87.20
2022-09-20T20:50:33.635Z,87.10
2022-09-20T20:53:59.921Z,88.20
2022-09-20T20:57:20.596Z,88.50
2022-09-20T21:00:49.192Z,89.00
2022-09-20T21:04:13.300Z,89.20
2022-09-20T21:07:40.580Z,89.60
2022-09-20T21:11:31.025Z,89.80
2022-09-20T21:15:07.928Z,90.00
2022-09-20T21:18:35.550Z,90.00
2022-09-20T21:21:47.392Z,90.10
2022-09-20T21:25:08.735Z,90.10
2022-09-20T21:28:41.654Z,90.20
2022-09-20T21:32:05.272Z,90.40
2022-09-20T21:35:29.779Z,90.40
2022-09-20T21:38:55.297Z,90.40
2022-09-20T21:42:23.215Z,90.40
2022-09-20T21:45:37.306Z,90.20
2022-09-20T21:49:06.359Z,90.70
2022-09-20T21:58:30.175Z,90.60
2022-09-20T22:01:43.704Z,91.10
2022-09-20T22:05:02.607Z,91.10
2022-09-20T22:08:36.623Z,91.10
2022-09-20T22:12:28.748Z,91.20
2022-09-20T22:15:55.043Z,91.40
2022-09-20T22:19:13.655Z,91.30
2022-09-20T22:22:42.112Z,91.50
2022-09-20T22:26:12.306Z,91.50
2022-09-20T22:29:40.185Z,91.70
2022-09-20T22:32:51.211Z,91.80
2022-09-20T22:36:22.217Z,92.00
2022-09-20T22:39:43.781Z,91.80
2022-09-20T22:43:10.999Z,92.00
2022-09-20T22:46:20.933Z,92.00
2022-09-20T22:49:43.302Z,92.10
2022-09-20T22:53:18.144Z,92.20
2022-09-20T22:56:48.351Z,92.30
2022-09-20T23:00:27.398Z,92.30
2022-09-20T23:03:59.890Z,92.50
